Time,TemperatureF,DewpointF,PressureIn,WindDirection,WindDirectionDegrees,WindSpeedMPH,WindSpeedGustMPH,Humidity,HourlyPrecipIn,Conditions,Clouds,dailyrainin,SolarRadiationWatts/m^2,SoftwareType,DateUTC
2013-09-11 00:05:00,78.0,72.0,-100.00,WSW,241,5.0,10.0,81,0.00,,,0.00,0.000000,,2013-09-11 04:05:00,
2013-09-11 00:44:00,77.0,72.0,-100.00,WSW,245,4.0,10.0,84,0.00,,,0.00,0.000000,,2013-09-11 04:44:00,
2013-09-11 00:54:00,77.0,72.0,-100.00,WSW,245,4.0,10.0,84,0.00,,,0.00,0.000000,,2013-09-11 04:54:00,
2013-09-11 01:03:00,77.0,72.0,-100.00,WSW,245,4.0,10.0,84,0.00,,,0.00,0.000000,,2013-09-11 05:03:00,
2013-09-11 01:43:00,76.0,72.0,-100.00,WSW,249,3.0,7.0,87,0.00,,,0.00,0.000000,,2013-09-11 05:43:00,
2013-09-11 01:53:00,76.0,72.0,-100.00,WSW,249,3.0,7.0,87,0.00,,,0.00,0.000000,,2013-09-11 05:53:00,
2013-09-11 02:02:00,76.0,72.0,-100.00,WSW,249,3.0,7.0,87,0.00,,,0.00,0.000000,,2013-09-11 06:02:00,
2013-09-11 02:42:00,76.0,72.0,-100.00,WSW,248,3.0,7.0,87,0.00,,,0.00,0.000000,,2013-09-11 06:42:00,
2013-09-11 02:52:00,76.0,72.0,-100.00,WSW,248,3.0,7.0,87,0.00,,,0.00,0.000000,,2013-09-11 06:52:00,
2013-09-11 03:02:00,76.0,72.0,-100.00,WSW,248,3.0,7.0,87,0.00,,,0.00,0.000000,,2013-09-11 07:02:00,
2013-09-11 03:42:00,76.0,72.0,-100.00,West,259,3.0,6.0,87,0.00,,,0.00,0.000000,,2013-09-11 07:42:00,
2013-09-11 03:53:00,76.0,72.0,-100.00,West,259,3.0,6.0,87,0.00,,,0.00,0.000000,,2013-09-11 07:53:00,
2013-09-11 04:02:00,76.0,72.0,-100.00,West,259,3.0,6.0,87,0.00,,,0.00,0.000000,,2013-09-11 08:02:00,
2013-09-11 04:42:00,74.0,71.0,-100.00,WSW,252,3.0,5.0,90,0.00,,,0.00,0.000000,,2013-09-11 08:42:00,
2013-09-11 04:52:00,74.0,71.0,-100.00,WSW,252,3.0,5.0,90,0.00,,,0.00,0.000000,,2013-09-11 08:52:00,
2013-09-11 05:02:00,74.0,71.0,-100.00,WSW,252,3.0,5.0,90,0.00,,,0.00,0.000000,,2013-09-11 09:02:00,
2013-09-11 05:43:00,73.0,71.0,-100.00,East,95,0.0,6.0,94,0.00,,,0.00,0.000000,,2013-09-11 09:43:00,
2013-09-11 05:53:00,73.0,71.0,-100.00,East,95,0.0,6.0,94,0.00,,,0.00,0.000000,,2013-09-11 09:53:00,
2013-09-11 06:03:00,73.0,71.0,-100.00,East,95,0.0,6.0,94,0.00,,,0.00,0.000000,,2013-09-11 10:03:00,
2013-09-11 06:43:00,72.0,71.0,-100.00,WNW,303,0.0,2.0,97,0.00,,,0.00,0.000000,,2013-09-11 10:43:00,
2013-09-11 06:53:00,72.0,71.0,-100.00,WNW,303,0.0,2.0,97,0.00,,,0.00,0.000000,,2013-09-11 10:53:00,
2013-09-11 07:03:00,72.0,71.0,-100.00,WNW,303,0.0,2.0,97,0.00,,,0.00,0.000000,,2013-09-11 11:03:00,
2013-09-11 07:42:00,72.0,71.0,-100.00,West,266,0.0,2.0,98,0.00,,,-99.99,13.000000,,2013-09-11 11:42:00,
2013-09-11 07:52:00,72.0,71.0,-100.00,West,266,0.0,2.0,98,0.00,,,-99.99,13.000000,,2013-09-11 11:52:00,
2013-09-11 08:01:00,72.0,71.0,-100.00,West,266,0.0,2.0,98,0.00,,,-99.99,13.000000,,2013-09-11 12:01:00,
2013-09-11 08:42:00,76.0,74.0,-100.00,West,262,2.0,4.0,92,0.00,,,-99.99,112.000000,,2013-09-11 12:42:00,
2013-09-11 08:52:00,76.0,74.0,-100.00,West,262,2.0,4.0,92,0.00,,,-99.99,112.000000,,2013-09-11 12:52:00,
2013-09-11 09:02:00,76.0,74.0,-100.00,West,262,2.0,4.0,92,0.00,,,-99.99,112.000000,,2013-09-11 13:02:00,
2013-09-11 09:42:00,80.0,73.0,-100.00,WSW,245,5.0,7.0,80,0.00,,,-99.99,288.000000,,2013-09-11 13:42:00,
2013-09-11 09:52:00,80.0,73.0,-100.00,WSW,245,5.0,7.0,80,0.00,,,-99.99,288.000000,,2013-09-11 13:52:00,
2013-09-11 10:02:00,80.0,73.0,-100.00,WSW,245,5.0,7.0,80,0.00,,,-99.99,288.000000,,2013-09-11 14:02:00,
2013-09-11 10:42:00,84.0,75.0,-100.00,WSW,243,6.0,10.0,74,0.00,,,0.00,462.000000,,2013-09-11 14:42:00,
2013-09-11 10:52:00,84.0,75.0,-100.00,WSW,243,6.0,10.0,74,0.00,,,0.00,462.000000,,2013-09-11 14:52:00,
2013-09-11 11:02:00,84.0,75.0,-100.00,WSW,243,6.0,10.0,74,0.00,,,0.00,462.000000,,2013-09-11 15:02:00,
2013-09-11 11:43:00,86.0,75.0,-100.00,SW,228,6.0,11.0,70,0.00,,,0.00,613.000000,,2013-09-11 15:43:00,
2013-09-11 11:54:00,86.0,75.0,-100.00,SW,228,6.0,11.0,70,0.00,,,0.00,613.000000,,2013-09-11 15:54:00,
2013-09-11 12:03:00,86.0,75.0,-100.00,SW,228,6.0,11.0,70,0.00,,,0.00,613.000000,,2013-09-11 16:03:00,
2013-09-11 12:43:00,89.0,76.0,-100.00,SW,219,4.0,13.0,66,0.00,,,0.00,730.000000,,2013-09-11 16:43:00,
2013-09-11 12:53:00,89.0,76.0,-100.00,SW,219,4.0,13.0,66,0.00,,,0.00,730.000000,,2013-09-11 16:53:00,
2013-09-11 13:03:00,89.0,76.0,-100.00,SW,219,4.0,13.0,66,0.00,,,0.00,730.000000,,2013-09-11 17:03:00,
2013-09-11 13:43:00,92.0,76.0,-100.00,SSW,201,5.0,10.0,60,0.00,,,0.00,789.000000,,2013-09-11 17:43:00,
2013-09-11 13:52:00,92.0,76.0,-100.00,SSW,201,5.0,10.0,60,0.00,,,0.00,789.000000,,2013-09-11 17:52:00,
2013-09-11 14:02:00,92.0,76.0,-100.00,SSW,201,5.0,10.0,60,0.00,,,0.00,789.000000,,2013-09-11 18:02:00,
2013-09-11 14:42:00,94.0,77.0,-100.00,WSW,246,5.0,10.0,58,0.00,,,0.00,779.000000,,2013-09-11 18:42:00,
2013-09-11 14:52:00,94.0,77.0,-100.00,WSW,246,5.0,10.0,58,0.00,,,0.00,779.000000,,2013-09-11 18:52:00,
2013-09-11 15:01:00,94.0,77.0,-100.00,WSW,246,5.0,10.0,58,0.00,,,0.00,779.000000,,2013-09-11 19:01:00,
2013-09-11 15:42:00,95.0,75.0,-100.00,SW,214,6.0,13.0,52,0.00,,,0.00,715.000000,,2013-09-11 19:42:00,
2013-09-11 15:53:00,95.0,75.0,-100.00,SW,214,6.0,13.0,52,0.00,,,0.00,715.000000,,2013-09-11 19:53:00,
2013-09-11 16:02:00,95.0,75.0,-100.00,SW,214,6.0,13.0,52,0.00,,,0.00,715.000000,,2013-09-11 20:02:00,
2013-09-11 16:42:00,94.0,74.0,-100.00,SSW,210,8.0,13.0,52,0.00,,,0.00,489.000000,,2013-09-11 20:42:00,
2013-09-11 16:52:00,94.0,74.0,-100.00,SSW,210,8.0,13.0,52,0.00,,,0.00,489.000000,,2013-09-11 20:52:00,
2013-09-11 17:02:00,94.0,74.0,-100.00,SSW,210,8.0,13.0,52,0.00,,,0.00,489.000000,,2013-09-11 21:02:00,
2013-09-11 17:44:00,92.0,75.0,-100.00,SSW,203,6.0,13.0,57,0.00,,,0.00,374.000000,,2013-09-11 21:44:00,
2013-09-11 17:54:00,92.0,75.0,-100.00,SSW,203,6.0,13.0,57,0.00,,,0.00,374.000000,,2013-09-11 21:54:00,
2013-09-11 18:05:00,92.0,75.0,-100.00,SSW,203,6.0,13.0,57,0.00,,,0.00,374.000000,,2013-09-11 22:05:00,
2013-09-11 18:43:00,87.0,73.0,-100.00,SW,233,5.0,12.0,64,0.00,,,0.00,59.000000,,2013-09-11 22:43:00,
2013-09-11 18:54:00,87.0,73.0,-100.00,SW,233,5.0,12.0,64,0.00,,,0.00,59.000000,,2013-09-11 22:54:00,
2013-09-11 19:03:00,87.0,73.0,-100.00,SW,233,5.0,12.0,64,0.00,,,0.00,59.000000,,2013-09-11 23:03:00,
2013-09-11 19:42:00,86.0,75.0,-100.00,SW,232,3.0,9.0,69,0.00,,,0.00,15.000000,,2013-09-11 23:42:00,
2013-09-11 19:53:00,86.0,75.0,-100.00,SW,232,3.0,9.0,69,0.00,,,0.00,15.000000,,2013-09-11 23:53:00,
2013-09-11 20:01:00,86.0,75.0,-100.00,SW,232,3.0,9.0,69,0.00,,,0.00,15.000000,,2013-09-12 00:01:00,
2013-09-11 20:42:00,85.0,75.0,-100.00,SW,232,4.0,8.0,71,0.00,,,0.00,0.000000,,2013-09-12 00:42:00,
2013-09-11 20:52:00,85.0,75.0,-100.00,SW,232,4.0,8.0,71,0.00,,,0.00,0.000000,,2013-09-12 00:52:00,
2013-09-11 21:01:00,85.0,75.0,-100.00,SW,232,4.0,8.0,71,0.00,,,0.00,0.000000,,2013-09-12 01:01:00,
2013-09-11 21:42:00,79.0,66.0,-100.00,SSW,193,2.0,26.0,64,0.00,,,0.00,0.000000,,2013-09-12 01:42:00,
2013-09-11 21:52:00,79.0,66.0,-100.00,SSW,193,2.0,26.0,64,0.00,,,0.00,0.000000,,2013-09-12 01:52:00,
2013-09-11 22:03:00,79.0,66.0,-100.00,SSW,193,2.0,26.0,64,0.00,,,0.00,0.000000,,2013-09-12 02:03:00,
2013-09-11 22:52:00,75.0,68.0,-100.00,SSE,149,1.0,4.0,78,0.00,,,0.00,0.000000,,2013-09-12 02:52:00,
2013-09-11 23:02:00,75.0,68.0,-100.00,SSE,149,1.0,4.0,78,0.00,,,0.00,0.000000,,2013-09-12 03:02:00,
2013-09-11 23:45:00,73.0,68.0,-100.00,NE,56,0.0,3.0,85,0.00,,,0.00,0.000000,,2013-09-12 03:45:00,
2013-09-11 23:55:00,73.0,68.0,-100.00,NE,56,0.0,3.0,85,0.00,,,0.00,0.000000,,2013-09-12 03:55:00,